createdAt,value
2022-10-22T00:01:10.826Z,100.00
2022-10-22T00:03:38.315Z,100.00
2022-10-22T00:06:07.048Z,100.00
2022-10-22T00:08:34.745Z,100.00
2022-10-22T00:11:14.858Z,100.00
2022-10-22T00:13:43.316Z,100.00
2022-10-22T00:16:11.569Z,100.00
2022-10-22T00:18:42.279Z,100.00
2022-10-22T00:21:13.352Z,100.00
2022-10-22T00:23:42.968Z,100.00
2022-10-22T00:26:11.242Z,100.00
2022-10-22T00:28:39.392Z,100.00
2022-10-22T00:31:07.105Z,100.00
2022-10-22T00:33:35.192Z,100.00
2022-10-22T00:36:07.479Z,100.00
2022-10-22T00:38:35.142Z,100.00
2022-10-22T00:41:02.780Z,100.00
2022-10-22T00:43:30.548Z,100.00
2022-10-22T00:45:58.064Z,100.00
2022-10-22T00:48:30.078Z,100.00
2022-10-22T00:51:04.784Z,100.00
2022-10-22T00:53:51.826Z,100.00
2022-10-22T00:56:20.857Z,100.00
2022-10-22T00:58:55.989Z,100.00
2022-10-22T01:01:26.671Z,100.00
2022-10-22T01:03:55.485Z,100.00
2022-10-22T01:06:34.386Z,100.00
2022-10-22T01:09:23.823Z,100.00
2022-10-22T01:12:04.053Z,100.00
2022-10-22T01:15:02.752Z,100.00
2022-10-22T01:17:36.427Z,100.00
2022-10-22T01:20:31.781Z,100.00
2022-10-22T01:23:27.355Z,100.00
2022-10-22T01:26:06.430Z,100.00
2022-10-22T01:28:59.073Z,100.00
2022-10-22T01:31:32.798Z,100.00
2022-10-22T01:34:03.793Z,100.00
2022-10-22T01:36:34.179Z,100.00
2022-10-22T01:39:03.255Z,100.00
2022-10-22T01:41:32.500Z,100.00
2022-10-22T01:44:00.028Z,100.00
2022-10-22T01:46:29.393Z,100.00
2022-10-22T01:49:33.689Z,100.00
2022-10-22T01:52:21.364Z,100.00
2022-10-22T01:55:30.465Z,100.00
2022-10-22T01:58:16.601Z,100.00
2022-10-22T02:00:58.583Z,100.00
2022-10-22T02:03:33.040Z,100.00
2022-10-22T02:06:08.974Z,100.00
2022-10-22T02:08:37.523Z,100.00
2022-10-22T02:11:06.445Z,100.00
2022-10-22T02:13:41.028Z,100.00
2022-10-22T02:16:13.600Z,100.00
2022-10-22T02:18:44.763Z,100.00
2022-10-22T02:21:12.944Z,100.00
2022-10-22T02:23:40.818Z,100.00
2022-10-22T02:26:25.553Z,100.00
2022-10-22T02:29:02.866Z,100.00
2022-10-22T02:31:34.628Z,100.00
2022-10-22T02:34:10.326Z,100.00
2022-10-22T02:36:46.731Z,100.00
2022-10-22T02:39:19.468Z,100.00
2022-10-22T02:41:47.489Z,100.00
2022-10-22T02:44:15.302Z,100.00
2022-10-22T02:46:43.943Z,100.00
2022-10-22T02:49:11.701Z,100.00
2022-10-22T02:51:39.662Z,100.00
2022-10-22T02:54:07.394Z,100.00
2022-10-22T02:56:35.656Z,100.00
2022-10-22T02:59:03.583Z,100.00
2022-10-22T03:01:31.440Z,100.00
2022-10-22T03:03:58.967Z,100.00
2022-10-22T03:06:26.691Z,100.00
2022-10-22T03:08:55.993Z,100.00
2022-10-22T03:11:23.671Z,100.00
2022-10-22T03:13:52.112Z,100.00
2022-10-22T03:16:19.875Z,100.00
2022-10-22T03:18:48.771Z,100.00
2022-10-22T03:21:54.920Z,100.00
2022-10-22T03:24:37.140Z,100.00
2022-10-22T03:27:07.341Z,100.00
2022-10-22T03:29:38.723Z,100.00
2022-10-22T03:32:07.732Z,100.00
2022-10-22T03:34:35.768Z,100.00
2022-10-22T03:37:04.188Z,100.00
2022-10-22T03:39:34.694Z,100.00
2022-10-22T03:42:03.526Z,100.00
2022-10-22T03:44:32.119Z,100.00
2022-10-22T03:47:02.451Z,100.00
2022-10-22T03:49:30.762Z,100.00
2022-10-22T03:51:58.921Z,100.00
2022-10-22T03:54:26.745Z,100.00
2022-10-22T03:56:56.143Z,100.00
2022-10-22T03:59:23.922Z,100.00
2022-10-22T04:01:51.774Z,100.00
2022-10-22T04:04:19.561Z,100.00
2022-10-22T04:06:47.793Z,100.00
2022-10-22T04:09:16.107Z,100.00
2022-10-22T04:11:43.790Z,100.00
2022-10-22T04:14:14.372Z,100.00
2022-10-22T04:16:44.108Z,100.00
2022-10-22T04:19:13.485Z,100.00
2022-10-22T04:21:41.071Z,100.00
2022-10-22T04:24:09.396Z,100.00
2022-10-22T04:26:37.491Z,100.00
2022-10-22T04:29:10.627Z,100.00
2022-10-22T04:31:43.396Z,100.00
2022-10-22T04:34:11.240Z,100.00
2022-10-22T04:36:38.843Z,100.00
2022-10-22T04:39:06.987Z,100.00
2022-10-22T04:41:38.793Z,100.00
2022-10-22T04:44:11.054Z,100.00
2022-10-22T04:46:44.138Z,100.00
2022-10-22T04:49:13.246Z,100.00
2022-10-22T04:51:41.305Z,100.00
2022-10-22T04:54:08.921Z,100.00
2022-10-22T04:56:36.624Z,100.00
2022-10-22T04:59:07.223Z,100.00
2022-10-22T05:01:42.917Z,100.00
2022-10-22T05:04:16.260Z,100.00
2022-10-22T05:06:44.050Z,100.00
2022-10-22T05:09:18.905Z,100.00
2022-10-22T05:11:49.376Z,100.00
2022-10-22T05:14:22.155Z,100.00
2022-10-22T05:16:52.874Z,100.00
2022-10-22T05:19:27.808Z,100.00
2022-10-22T05:24:44.184Z,100.00
2022-10-22T05:27:13.857Z,100.00
2022-10-22T05:29:42.466Z,100.00
2022-10-22T05:32:11.955Z,100.00
2022-10-22T05:34:41.024Z,100.00
2022-10-22T05:37:09.712Z,100.00
2022-10-22T05:39:40.453Z,100.00
2022-10-22T05:42:08.262Z,100.00
2022-10-22T05:44:36.032Z,100.00
2022-10-22T05:47:04.259Z,100.00
2022-10-22T05:49:34.170Z,100.00
2022-10-22T05:52:03.324Z,100.00
2022-10-22T05:54:31.242Z,100.00
2022-10-22T05:56:59.663Z,100.00
2022-10-22T05:59:27.284Z,100.00
2022-10-22T06:01:54.905Z,100.00
2022-10-22T06:04:23.310Z,100.00
2022-10-22T06:06:54.075Z,100.00
2022-10-22T06:12:09.610Z,100.00
2022-10-22T06:14:40.417Z,100.00
2022-10-22T06:17:12.486Z,100.00
2022-10-22T06:19:42.928Z,100.00
2022-10-22T06:22:10.766Z,100.00
2022-10-22T06:24:41.596Z,100.00
2022-10-22T06:27:12.106Z,100.00
2022-10-22T06:29:40.546Z,100.00
2022-10-22T06:32:08.157Z,100.00
2022-10-22T06:34:36.093Z,100.00
2022-10-22T06:37:03.776Z,100.00
2022-10-22T06:39:31.838Z,100.00
2022-10-22T06:42:00.468Z,100.00
2022-10-22T06:44:28.868Z,100.00
2022-10-22T06:46:57.497Z,100.00
2022-10-22T06:49:25.416Z,100.00
2022-10-22T06:51:54.775Z,100.00
2022-10-22T06:54:23.284Z,100.00
2022-10-22T06:56:52.265Z,100.00
2022-10-22T06:59:20.149Z,100.00
2022-10-22T07:01:48.506Z,100.00
2022-10-22T07:04:17.261Z,100.00
2022-10-22T07:06:46.787Z,100.00
2022-10-22T07:09:16.170Z,100.00
2022-10-22T07:11:46.299Z,100.00
2022-10-22T07:14:15.212Z,100.00
2022-10-22T07:16:45.797Z,100.00
2022-10-22T07:19:14.327Z,100.00
2022-10-22T07:21:43.017Z,100.00
2022-10-22T07:24:12.300Z,100.00
2022-10-22T07:26:42.509Z,100.00
2022-10-22T07:29:10.768Z,100.00
2022-10-22T07:31:39.583Z,97.13
2022-10-22T07:34:08.035Z,97.60
2022-10-22T07:36:35.767Z,96.39
2022-10-22T07:39:04.405Z,96.43
2022-10-22T07:41:34.007Z,97.76
2022-10-22T07:44:03.522Z,95.57
2022-10-22T07:46:40.267Z,95.66
2022-10-22T07:49:08.866Z,95.95
2022-10-22T07:51:36.992Z,95.48
2022-10-22T07:54:05.904Z,95.50
2022-10-22T07:56:36.208Z,94.11
2022-10-22T07:59:03.804Z,94.33
2022-10-22T08:01:31.920Z,94.12
2022-10-22T08:04:00.088Z,94.25
2022-10-22T08:06:28.029Z,92.98
2022-10-22T08:08:56.546Z,94.25
2022-10-22T08:11:24.635Z,95.83
2022-10-22T08:13:52.675Z,95.08
2022-10-22T08:16:20.833Z,94.66
2022-10-22T08:18:48.735Z,93.05
2022-10-22T08:21:18.108Z,92.44
2022-10-22T08:23:46.403Z,93.81
2022-10-22T08:26:14.661Z,91.71
2022-10-22T08:28:47.112Z,91.38
2022-10-22T08:31:15.422Z,93.02
2022-10-22T08:33:44.016Z,92.80
2022-10-22T08:36:11.875Z,89.39
2022-10-22T08:38:41.318Z,88.41
2022-10-22T08:41:17.123Z,90.46
2022-10-22T08:44:22.231Z,88.67
2022-10-22T08:47:21.491Z,84.46
2022-10-22T08:49:53.207Z,83.90
2022-10-22T08:52:22.806Z,84.73
2022-10-22T08:54:58.402Z,85.53
2022-10-22T08:58:02.194Z,83.45
2022-10-22T09:00:42.582Z,81.72
2022-10-22T09:03:10.246Z,81.31
2022-10-22T09:06:15.293Z,82.36
2022-10-22T09:08:47.189Z,79.64
2022-10-22T09:11:38.785Z,79.55
2022-10-22T09:17:21.474Z,78.76
2022-10-22T09:19:52.539Z,81.25
2022-10-22T09:22:40.238Z,79.32
2022-10-22T09:25:28.566Z,78.34
2022-10-22T09:27:59.428Z,77.21
2022-10-22T09:30:30.892Z,76.49
2022-10-22T09:33:14.999Z,73.60
2022-10-22T09:35:48.657Z,72.03
2022-10-22T09:38:19.726Z,71.96
2022-10-22T09:40:55.072Z,69.54
2022-10-22T09:43:23.335Z,69.07
2022-10-22T09:46:04.589Z,68.68
2022-10-22T09:48:43.180Z,66.60
2022-10-22T09:51:25.950Z,65.57
2022-10-22T09:54:03.296Z,67.75
2022-10-22T09:56:39.488Z,69.43
2022-10-22T09:59:07.149Z,70.67
2022-10-22T10:01:41.097Z,72.00
2022-10-22T10:04:12.599Z,71.76
2022-10-22T10:06:42.794Z,72.52
2022-10-22T10:09:17.877Z,74.37
2022-10-22T10:12:20.504Z,72.90
2022-10-22T10:15:07.098Z,72.91
2022-10-22T10:17:59.358Z,73.29
2022-10-22T10:20:35.994Z,73.65
2022-10-22T10:23:32.311Z,73.28
2022-10-22T10:26:24.738Z,72.29
2022-10-22T10:29:14.459Z,73.74
2022-10-22T10:32:13.029Z,73.16
2022-10-22T10:35:03.651Z,74.62
2022-10-22T10:37:44.105Z,74.22
2022-10-22T10:40:23.851Z,73.55
2022-10-22T10:42:59.350Z,74.16
2022-10-22T10:45:29.987Z,72.64
2022-10-22T10:48:09.669Z,68.67
2022-10-22T10:50:43.998Z,67.82
2022-10-22T10:53:41.062Z,68.27
2022-10-22T10:56:39.215Z,69.29
2022-10-22T10:59:19.700Z,69.30
2022-10-22T11:02:08.456Z,69.44
2022-10-22T11:05:03.401Z,69.48
2022-10-22T11:07:39.157Z,69.80
2022-10-22T11:10:14.598Z,69.87
2022-10-22T11:12:51.661Z,72.81
2022-10-22T11:15:33.766Z,71.27
2022-10-22T11:18:16.093Z,72.33
2022-10-22T11:20:55.841Z,72.18
2022-10-22T11:23:51.292Z,70.72
2022-10-22T11:26:54.829Z,71.82
2022-10-22T11:29:28.236Z,71.86
2022-10-22T11:32:00.804Z,70.85
2022-10-22T11:34:35.093Z,70.87
2022-10-22T11:37:05.203Z,73.03
2022-10-22T11:39:39.763Z,71.61
2022-10-22T11:42:12.570Z,72.77
2022-10-22T11:45:05.341Z,72.48
2022-10-22T11:47:53.547Z,71.33
2022-10-22T11:50:25.195Z,71.22
2022-10-22T11:53:03.512Z,71.16
2022-10-22T11:55:55.615Z,70.39
2022-10-22T11:58:30.901Z,70.51
2022-10-22T12:01:03.690Z,70.62
2022-10-22T12:03:31.487Z,70.08
2022-10-22T12:06:19.949Z,69.83
2022-10-22T12:08:51.036Z,70.54
2022-10-22T12:11:37.348Z,71.53
2022-10-22T12:14:26.844Z,71.65
2022-10-22T12:17:12.856Z,70.20
2022-10-22T12:19:44.338Z,70.20
2022-10-22T12:22:21.412Z,70.04
2022-10-22T12:24:52.222Z,70.68
2022-10-22T12:27:26.442Z,70.58
2022-10-22T12:29:58.868Z,70.61
2022-10-22T12:32:38.435Z,70.44
2022-10-22T12:35:17.203Z,70.09
2022-10-22T12:37:45.352Z,70.58
2022-10-22T12:40:23.366Z,69.94
2022-10-22T12:42:52.452Z,70.18
2022-10-22T12:45:21.565Z,69.37
2022-10-22T12:48:03.402Z,69.73
2022-10-22T12:50:40.664Z,70.69
2022-10-22T12:53:23.367Z,72.37
2022-10-22T12:55:53.278Z,72.96
2022-10-22T12:58:28.182Z,71.76
2022-10-22T13:00:59.589Z,74.07
2022-10-22T13:03:38.763Z,70.85
2022-10-22T13:06:18.611Z,69.10
2022-10-22T13:09:00.817Z,68.94
2022-10-22T13:11:45.169Z,67.26
2022-10-22T13:14:31.943Z,67.17
2022-10-22T13:17:21.457Z,67.37
2022-10-22T13:20:06.183Z,68.19
2022-10-22T13:22:37.052Z,69.21
2022-10-22T13:25:21.121Z,68.85
2022-10-22T13:28:00.589Z,69.21
2022-10-22T13:30:36.918Z,69.97
2022-10-22T13:33:20.715Z,68.67
2022-10-22T13:35:49.791Z,69.17
2022-10-22T13:38:21.178Z,70.30
2022-10-22T13:40:51.472Z,70.43
2022-10-22T13:43:20.890Z,70.69
2022-10-22T13:46:00.682Z,72.22
2022-10-22T13:48:31.315Z,71.75
2022-10-22T13:50:59.650Z,72.54
2022-10-22T13:53:29.182Z,73.10
2022-10-22T13:55:57.385Z,74.51
2022-10-22T13:58:25.383Z,74.31
2022-10-22T14:00:59.425Z,75.57
2022-10-22T14:03:32.233Z,75.29
2022-10-22T14:06:02.174Z,74.51
2022-10-22T14:08:30.534Z,75.26
2022-10-22T14:10:58.779Z,75.90
2022-10-22T14:13:28.055Z,76.32
2022-10-22T14:15:56.228Z,77.18
2022-10-22T14:18:29.396Z,77.30
2022-10-22T14:21:14.954Z,77.67
2022-10-22T14:23:46.676Z,78.04
2022-10-22T14:26:24.102Z,78.89
2022-10-22T14:31:41.772Z,80.46
2022-10-22T14:34:15.217Z,81.00
2022-10-22T14:36:44.141Z,81.44
2022-10-22T14:39:14.373Z,82.19
2022-10-22T14:41:42.790Z,82.34
2022-10-22T14:44:14.861Z,82.55
2022-10-22T14:46:44.554Z,83.56
2022-10-22T14:49:12.614Z,84.23
2022-10-22T14:51:40.470Z,83.82
2022-10-22T14:54:08.793Z,84.26
2022-10-22T14:56:38.509Z,85.34
2022-10-22T14:59:06.817Z,86.20
2022-10-22T15:01:34.984Z,86.70
2022-10-22T15:04:06.577Z,88.79
2022-10-22T15:06:35.005Z,89.39
2022-10-22T15:09:03.801Z,90.82
2022-10-22T15:11:32.715Z,89.31
2022-10-22T15:14:13.165Z,89.46
2022-10-22T15:16:46.140Z,89.40
2022-10-22T15:19:16.019Z,90.06
2022-10-22T15:21:44.249Z,90.44
2022-10-22T15:24:12.326Z,90.72
2022-10-22T15:26:40.625Z,91.11
2022-10-22T15:29:08.467Z,91.98
2022-10-22T15:31:59.090Z,92.28
2022-10-22T15:34:34.690Z,91.41
2022-10-22T15:37:05.146Z,91.27
2022-10-22T15:39:32.864Z,92.49
2022-10-22T15:42:01.533Z,93.10
2022-10-22T15:44:32.617Z,93.57
2022-10-22T15:47:03.483Z,92.97
2022-10-22T15:49:31.587Z,94.06
2022-10-22T15:54:57.932Z,93.27
2022-10-22T15:57:32.478Z,92.71
2022-10-22T16:00:15.476Z,92.24
2022-10-22T16:02:44.702Z,91.66
2022-10-22T16:05:13.008Z,91.36
2022-10-22T16:07:47.474Z,91.52
2022-10-22T16:10:17.510Z,91.50
2022-10-22T16:12:47.050Z,91.55
2022-10-22T16:15:15.317Z,91.33
2022-10-22T16:17:46.935Z,91.49
2022-10-22T16:20:20.599Z,92.15
2022-10-22T16:22:53.508Z,92.79
2022-10-22T16:25:21.932Z,92.75
2022-10-22T16:27:53.593Z,93.37
2022-10-22T16:30:21.767Z,93.31
2022-10-22T16:32:49.478Z,94.14
2022-10-22T16:35:17.462Z,94.14
2022-10-22T16:37:47.428Z,95.82
2022-10-22T16:40:17.158Z,95.96
2022-10-22T16:42:45.745Z,96.63
2022-10-22T16:50:37.009Z,99.56
2022-10-22T16:53:04.566Z,100.00
2022-10-22T16:55:39.185Z,100.00
2022-10-22T16:58:07.802Z,100.00
2022-10-22T17:00:37.205Z,100.00
2022-10-22T17:03:12.376Z,100.00
2022-10-22T17:05:40.819Z,100.00
2022-10-22T17:08:08.395Z,100.00
2022-10-22T17:10:40.700Z,100.00
2022-10-22T17:13:09.096Z,100.00
2022-10-22T17:15:40.085Z,100.00
2022-10-22T17:18:08.684Z,100.00
2022-10-22T17:20:37.184Z,100.00
2022-10-22T17:23:06.475Z,100.00
2022-10-22T17:25:43.212Z,100.00
2022-10-22T17:28:13.118Z,100.00
2022-10-22T17:30:51.191Z,100.00
2022-10-22T17:33:20.180Z,100.00
2022-10-22T17:35:52.768Z,100.00
2022-10-22T17:38:22.895Z,100.00
2022-10-22T17:40:51.463Z,100.00
2022-10-22T17:43:20.874Z,100.00
2022-10-22T17:45:49.756Z,100.00
2022-10-22T17:48:19.197Z,100.00
2022-10-22T17:50:53.634Z,100.00
2022-10-22T17:53:26.921Z,100.00
2022-10-22T17:56:04.360Z,100.00
2022-10-22T17:58:33.941Z,100.00
2022-10-22T18:01:01.728Z,100.00
2022-10-22T18:03:30.160Z,100.00
2022-10-22T18:06:06.487Z,100.00
2022-10-22T18:08:35.548Z,100.00
2022-10-22T18:11:13.337Z,100.00
2022-10-22T18:13:49.696Z,100.00
2022-10-22T18:16:22.573Z,100.00
2022-10-22T18:18:55.711Z,100.00
2022-10-22T18:21:30.359Z,100.00
2022-10-22T18:23:59.980Z,100.00
2022-10-22T18:26:28.428Z,100.00
2022-10-22T18:28:57.883Z,100.00
2022-10-22T18:31:30.552Z,100.00
2022-10-22T18:34:03.756Z,100.00
2022-10-22T18:36:32.298Z,100.00
2022-10-22T18:39:05.698Z,100.00
2022-10-22T18:41:34.880Z,100.00
2022-10-22T18:44:05.152Z,100.00
2022-10-22T18:46:38.559Z,100.00
2022-10-22T18:49:07.663Z,100.00
2022-10-22T18:51:36.536Z,100.00
2022-10-22T18:54:21.785Z,100.00
2022-10-22T18:57:03.077Z,100.00
2022-10-22T18:59:32.097Z,100.00
2022-10-22T19:02:02.502Z,100.00
2022-10-22T19:04:37.417Z,100.00
2022-10-22T19:09:41.957Z,100.00
2022-10-22T19:12:14.894Z,100.00
2022-10-22T19:14:53.327Z,100.00
2022-10-22T19:17:26.757Z,100.00
2022-10-22T19:19:57.527Z,100.00
2022-10-22T19:22:39.687Z,100.00
2022-10-22T19:25:12.037Z,100.00
2022-10-22T19:27:52.992Z,100.00
2022-10-22T19:33:11.932Z,100.00
2022-10-22T19:35:39.828Z,100.00
2022-10-22T19:38:07.382Z,100.00
2022-10-22T19:40:35.837Z,100.00
2022-10-22T19:43:04.008Z,100.00
2022-10-22T19:45:32.963Z,100.00
2022-10-22T19:48:02.945Z,100.00
2022-10-22T19:50:32.708Z,100.00
2022-10-22T19:53:04.090Z,100.00
2022-10-22T19:55:33.877Z,100.00
2022-10-22T19:58:02.394Z,100.00
2022-10-22T20:00:34.855Z,100.00
2022-10-22T20:03:03.366Z,100.00
2022-10-22T20:05:31.421Z,100.00
2022-10-22T20:08:02.637Z,100.00
2022-10-22T20:10:51.382Z,100.00
2022-10-22T20:13:20.780Z,100.00
2022-10-22T20:15:53.364Z,100.00
2022-10-22T20:18:22.898Z,100.00
2022-10-22T20:20:51.040Z,100.00
2022-10-22T20:23:19.015Z,100.00
2022-10-22T20:25:48.197Z,100.00
2022-10-22T20:28:16.552Z,100.00
2022-10-22T20:30:46.155Z,100.00
2022-10-22T20:33:14.221Z,100.00
2022-10-22T20:35:42.937Z,100.00
2022-10-22T20:38:14.847Z,100.00
2022-10-22T20:40:42.397Z,100.00
2022-10-22T20:43:12.300Z,100.00
2022-10-22T20:45:40.640Z,100.00
2022-10-22T20:48:09.030Z,100.00
2022-10-22T20:50:37.696Z,100.00
2022-10-22T20:53:05.404Z,100.00
2022-10-22T20:55:32.931Z,100.00
2022-10-22T20:58:00.780Z,100.00
2022-10-22T21:00:36.125Z,100.00
2022-10-22T21:03:04.017Z,100.00
2022-10-22T21:05:31.813Z,100.00
2022-10-22T21:08:00.296Z,100.00
2022-10-22T21:10:32.433Z,100.00
2022-10-22T21:13:00.890Z,100.00
2022-10-22T21:15:29.161Z,100.00
2022-10-22T21:17:56.757Z,100.00
2022-10-22T21:20:25.368Z,100.00
2022-10-22T21:22:54.047Z,100.00
2022-10-22T21:25:21.927Z,100.00
2022-10-22T21:27:49.590Z,100.00
2022-10-22T21:30:17.198Z,100.00
2022-10-22T21:32:45.499Z,100.00
2022-10-22T21:35:15.842Z,100.00
2022-10-22T21:37:46.624Z,100.00
2022-10-22T21:40:16.642Z,100.00
2022-10-22T21:42:45.103Z,100.00
2022-10-22T21:45:14.246Z,100.00
2022-10-22T21:47:44.064Z,100.00
2022-10-22T21:50:14.745Z,100.00
2022-10-22T21:52:43.493Z,100.00
2022-10-22T21:55:11.159Z,100.00
2022-10-22T21:57:41.123Z,100.00
2022-10-22T22:00:11.771Z,100.00
2022-10-22T22:02:40.237Z,100.00
2022-10-22T22:05:09.548Z,100.00
2022-10-22T22:07:37.476Z,100.00
2022-10-22T22:10:06.672Z,100.00
2022-10-22T22:12:34.416Z,100.00
2022-10-22T22:15:02.098Z,100.00
2022-10-22T22:17:29.929Z,100.00
2022-10-22T22:20:03.424Z,100.00
2022-10-22T22:22:31.165Z,100.00
2022-10-22T22:24:58.751Z,100.00
2022-10-22T22:27:26.398Z,100.00
2022-10-22T22:29:54.380Z,100.00
2022-10-22T22:32:22.287Z,100.00
2022-10-22T22:34:50.035Z,100.00
2022-10-22T22:37:18.061Z,100.00
2022-10-22T22:39:45.601Z,100.00
2022-10-22T22:42:14.325Z,100.00
2022-10-22T22:44:42.830Z,100.00
2022-10-22T22:47:10.660Z,100.00
2022-10-22T22:49:38.165Z,100.00
2022-10-22T22:52:06.167Z,100.00
2022-10-22T22:54:34.413Z,100.00
2022-10-22T22:57:01.934Z,100.00
2022-10-22T22:59:29.718Z,100.00
2022-10-22T23:01:58.853Z,100.00
2022-10-22T23:04:26.802Z,100.00
2022-10-22T23:06:54.390Z,100.00
2022-10-22T23:09:25.986Z,100.00
2022-10-22T23:11:54.436Z,100.00
2022-10-22T23:14:21.961Z,100.00
2022-10-22T23:16:52.462Z,100.00
2022-10-22T23:19:22.563Z,100.00
2022-10-22T23:21:53.614Z,100.00
2022-10-22T23:24:25.307Z,100.00
2022-10-22T23:26:54.930Z,100.00
2022-10-22T23:29:26.416Z,100.00
2022-10-22T23:31:56.317Z,100.00
2022-10-22T23:34:25.530Z,100.00
2022-10-22T23:36:55.427Z,100.00
2022-10-22T23:39:27.913Z,100.00
2022-10-22T23:41:55.681Z,100.00
2022-10-22T23:44:24.418Z,100.00
2022-10-22T23:46:52.689Z,100.00
2022-10-22T23:49:20.429Z,100.00
2022-10-22T23:51:48.437Z,100.00
2022-10-22T23:54:18.544Z,100.00
2022-10-22T23:56:46.373Z,100.00
